createdAt,value
2019-04-04T00:01:53.091Z,96.60
2019-04-04T00:03:54.442Z,96.90
2019-04-04T00:05:56.644Z,96.80
2019-04-04T00:08:00.137Z,96.60
2019-04-04T00:10:04.661Z,96.90
2019-04-04T00:12:08.042Z,96.80
2019-04-04T00:14:12.744Z,96.80
2019-04-04T00:16:15.615Z,96.80
2019-04-04T00:18:16.308Z,96.70
2019-04-04T00:20:17.654Z,96.90
2019-04-04T00:22:19.043Z,97.00
2019-04-04T00:24:20.396Z,97.00
2019-04-04T00:26:21.738Z,97.40
2019-04-04T00:28:23.115Z,97.00
2019-04-04T00:30:24.469Z,97.00
2019-04-04T00:32:25.817Z,97.00
2019-04-04T00:34:28.156Z,97.00
2019-04-04T00:36:30.069Z,96.90
2019-04-04T00:38:31.396Z,97.20
2019-04-04T00:40:32.778Z,97.00
2019-04-04T00:42:34.260Z,97.20
2019-04-04T00:44:35.610Z,97.30
2019-04-04T00:46:36.955Z,97.40
2019-04-04T00:48:38.323Z,97.10
2019-04-04T00:50:39.743Z,97.30
2019-04-04T00:52:41.519Z,97.30
2019-04-04T00:54:44.785Z,97.40
2019-04-04T00:56:46.913Z,97.20
2019-04-04T00:58:51.680Z,97.50
2019-04-04T01:00:52.978Z,97.60
2019-04-04T01:02:58.295Z,97.40
2019-04-04T01:05:01.311Z,97.60
2019-04-04T01:07:02.998Z,97.50
2019-04-04T01:09:11.745Z,97.60
2019-04-04T01:11:09.220Z,97.80
2019-04-04T01:13:10.581Z,97.50
2019-04-04T01:15:12.125Z,97.60
2019-04-04T01:17:13.508Z,97.80
2019-04-04T01:19:14.881Z,97.60
2019-04-04T01:21:16.247Z,97.90
2019-04-04T01:23:17.599Z,98.20
2019-04-04T01:25:18.975Z,97.90
2019-04-04T01:27:20.365Z,97.70
2019-04-04T01:29:21.729Z,97.70
2019-04-04T01:31:23.104Z,97.70
2019-04-04T01:33:24.481Z,97.70
2019-04-04T01:35:25.847Z,97.50
2019-04-04T01:37:27.883Z,98.50
2019-04-04T01:39:31.231Z,98.80
2019-04-04T01:41:35.863Z,98.50
2019-04-04T01:43:35.830Z,98.70
2019-04-04T01:45:37.224Z,99.20
2019-04-04T01:47:38.695Z,98.70
2019-04-04T01:49:40.036Z,98.90
2019-04-04T01:51:41.386Z,99.10
2019-04-04T01:53:42.774Z,99.40
2019-04-04T01:55:44.134Z,98.90
2019-04-04T01:57:45.486Z,99.30
2019-04-04T01:59:46.861Z,99.90
2019-04-04T02:01:48.209Z,99.90
2019-04-04T02:03:49.545Z,99.90
2019-04-04T02:05:50.925Z,99.90
2019-04-04T02:07:52.277Z,99.90
2019-04-04T02:09:53.856Z,99.90
2019-04-04T02:11:55.202Z,99.90
2019-04-04T02:13:56.644Z,99.90
2019-04-04T02:15:58.027Z,99.90
2019-04-04T02:17:59.407Z,99.90
2019-04-04T02:20:00.747Z,99.90
2019-04-04T02:22:02.533Z,99.90
2019-04-04T02:24:03.878Z,99.90
2019-04-04T02:26:05.881Z,99.90
2019-04-04T02:28:08.888Z,99.90
2019-04-04T02:30:14.586Z,99.90
2019-04-04T02:32:16.125Z,99.90
2019-04-04T02:34:17.479Z,99.90
2019-04-04T02:36:18.858Z,99.90
2019-04-04T02:38:20.337Z,99.90
2019-04-04T02:40:21.688Z,99.90
2019-04-04T02:42:23.044Z,99.90
2019-04-04T02:44:24.435Z,99.90
2019-04-04T02:46:25.796Z,99.90
2019-04-04T02:48:27.152Z,99.90
2019-04-04T02:50:28.546Z,99.90
2019-04-04T02:52:29.919Z,99.90
2019-04-04T02:54:31.280Z,99.90
2019-04-04T02:56:34.847Z,99.90
2019-04-04T02:58:36.127Z,99.90
2019-04-04T03:00:37.553Z,99.90
2019-04-04T03:02:39.029Z,99.90
2019-04-04T03:04:40.473Z,99.90
2019-04-04T03:06:41.966Z,99.90
2019-04-04T03:08:43.352Z,99.90
2019-04-04T03:10:47.700Z,99.90
2019-04-04T03:12:48.102Z,99.90
2019-04-04T03:14:50.727Z,99.90
2019-04-04T03:16:56.365Z,99.90
2019-04-04T03:18:55.603Z,99.90
2019-04-04T03:20:56.950Z,99.90
2019-04-04T03:23:00.513Z,99.90
2019-04-04T03:25:01.581Z,99.90
2019-04-04T03:27:03.097Z,99.90
2019-04-04T03:29:05.756Z,99.90
2019-04-04T03:31:07.311Z,99.90
2019-04-04T03:33:08.711Z,99.90
2019-04-04T03:35:10.078Z,99.90
2019-04-04T03:37:12.428Z,99.90
2019-04-04T03:39:14.135Z,99.90
2019-04-04T03:41:15.488Z,99.90
2019-04-04T03:43:16.939Z,99.90
2019-04-04T03:45:18.412Z,99.90
2019-04-04T03:47:19.756Z,99.90
2019-04-04T03:49:24.295Z,99.90
2019-04-04T03:51:24.439Z,99.90
2019-04-04T03:53:26.015Z,99.90
2019-04-04T03:55:28.505Z,99.90
2019-04-04T03:57:30.248Z,99.90
2019-04-04T03:59:32.510Z,99.90
2019-04-04T04:01:34.551Z,99.90
2019-04-04T04:03:35.898Z,99.90
2019-04-04T04:05:40.636Z,99.90
2019-04-04T04:07:40.554Z,99.90
2019-04-04T04:09:41.940Z,99.90
2019-04-04T04:11:43.306Z,99.90
2019-04-04T04:13:49.004Z,99.90
2019-04-04T04:15:48.054Z,99.90
2019-04-04T04:17:49.403Z,99.90
2019-04-04T04:19:50.790Z,99.90
2019-04-04T04:21:52.172Z,99.90
2019-04-04T04:23:56.247Z,99.90
2019-04-04T04:25:56.851Z,99.90
2019-04-04T04:27:58.196Z,99.90
2019-04-04T04:30:00.231Z,99.90
2019-04-04T04:32:02.848Z,99.90
2019-04-04T04:34:04.203Z,99.90
2019-04-04T04:36:09.327Z,99.90
2019-04-04T04:38:08.890Z,99.90
2019-04-04T04:40:13.848Z,99.90
2019-04-04T04:42:14.609Z,99.90
2019-04-04T04:44:15.970Z,99.90
2019-04-04T04:46:18.068Z,99.90
2019-04-04T04:48:19.748Z,99.90
2019-04-04T04:50:21.096Z,99.90
2019-04-04T04:52:22.444Z,99.90
2019-04-04T04:54:23.848Z,99.90
2019-04-04T04:56:25.224Z,99.90
2019-04-04T04:58:26.575Z,99.90
2019-04-04T05:00:28.253Z,99.90
2019-04-04T05:02:29.627Z,99.90
2019-04-04T05:04:30.986Z,99.90
2019-04-04T05:06:35.298Z,99.90
2019-04-04T05:08:35.656Z,99.90
2019-04-04T05:10:37.062Z,99.90
2019-04-04T05:12:38.438Z,99.90
2019-04-04T05:14:39.800Z,99.90
2019-04-04T05:16:41.143Z,99.90
2019-04-04T05:18:42.528Z,99.90
2019-04-04T05:20:43.889Z,99.90
2019-04-04T05:22:45.293Z,99.90
2019-04-04T05:24:49.131Z,99.90
2019-04-04T05:26:49.924Z,99.90
2019-04-04T05:28:51.279Z,99.90
2019-04-04T05:30:52.694Z,99.90
2019-04-04T05:32:56.386Z,99.90
2019-04-04T05:34:57.304Z,99.90
2019-04-04T05:36:58.660Z,99.90
2019-04-04T05:39:00.006Z,99.90
2019-04-04T05:41:01.384Z,99.90
2019-04-04T05:43:04.172Z,99.90
2019-04-04T05:45:06.913Z,99.90
2019-04-04T05:47:08.391Z,99.90
2019-04-04T05:49:09.776Z,99.90
2019-04-04T05:51:11.132Z,99.90
2019-04-04T05:53:12.504Z,99.90
2019-04-04T05:55:13.903Z,99.90
2019-04-04T05:57:15.253Z,99.90
2019-04-04T05:59:16.609Z,99.90
2019-04-04T06:01:21.983Z,99.90
2019-04-04T06:03:23.320Z,99.90
2019-04-04T06:05:26.877Z,99.90
2019-04-04T06:07:27.982Z,99.90
2019-04-04T06:09:29.363Z,99.90
2019-04-04T06:11:30.744Z,99.90
2019-04-04T06:13:32.118Z,99.90
2019-04-04T06:15:33.490Z,99.90
2019-04-04T06:17:34.836Z,99.90
2019-04-04T06:19:36.192Z,99.90
2019-04-04T06:21:37.586Z,99.90
2019-04-04T06:23:38.947Z,99.90
2019-04-04T06:25:40.298Z,99.90
2019-04-04T06:27:41.707Z,99.90
2019-04-04T06:29:43.034Z,99.90
2019-04-04T06:31:44.387Z,99.90
2019-04-04T06:33:45.805Z,99.90
2019-04-04T06:35:47.982Z,99.90
2019-04-04T06:37:51.340Z,99.90
2019-04-04T06:39:54.362Z,99.90
2019-04-04T06:41:55.964Z,99.90
2019-04-04T06:43:57.317Z,99.90
2019-04-04T06:45:58.699Z,99.90
2019-04-04T06:48:00.165Z,99.90
2019-04-04T06:50:01.636Z,99.90
2019-04-04T06:52:03.139Z,99.90
2019-04-04T06:54:04.593Z,99.90
2019-04-04T06:56:05.968Z,99.90
2019-04-04T06:58:09.423Z,99.90
2019-04-04T07:00:11.198Z,99.90
2019-04-04T07:02:12.568Z,99.90
2019-04-04T07:04:13.913Z,99.90
2019-04-04T07:06:15.261Z,99.90
2019-04-04T07:08:16.633Z,99.90
2019-04-04T07:10:20.940Z,99.90
2019-04-04T07:12:28.119Z,99.90
2019-04-04T07:14:24.575Z,99.90
2019-04-04T07:16:25.923Z,99.90
2019-04-04T07:18:27.407Z,99.90
2019-04-04T07:20:28.852Z,99.90
2019-04-04T07:22:30.227Z,99.90
2019-04-04T07:24:31.772Z,99.90
2019-04-04T07:26:33.196Z,99.90
2019-04-04T07:28:34.594Z,99.90
2019-04-04T07:30:35.941Z,99.90
2019-04-04T07:32:40.710Z,99.90
2019-04-04T07:34:40.573Z,99.90
2019-04-04T07:36:41.931Z,99.90
2019-04-04T07:38:43.326Z,99.90
2019-04-04T07:40:44.681Z,99.90
2019-04-04T07:42:47.902Z,99.90
2019-04-04T07:44:49.418Z,99.90
2019-04-04T07:46:50.763Z,99.90
2019-04-04T07:48:52.352Z,99.90
2019-04-04T07:50:53.898Z,99.90
2019-04-04T07:52:55.282Z,99.90
2019-04-04T07:54:56.643Z,99.90
2019-04-04T07:56:57.997Z,99.90
2019-04-04T07:58:59.995Z,99.90
2019-04-04T08:01:01.357Z,99.90
2019-04-04T08:03:02.708Z,99.90
2019-04-04T08:05:07.485Z,99.90
2019-04-04T08:07:08.846Z,99.90
2019-04-04T08:09:10.224Z,99.90
2019-04-04T08:11:13.334Z,99.90
2019-04-04T08:13:14.901Z,99.90
2019-04-04T08:15:16.332Z,99.90
2019-04-04T08:17:19.046Z,99.90
2019-04-04T08:19:20.769Z,99.90
2019-04-04T08:21:22.118Z,99.90
2019-04-04T08:23:23.571Z,99.90
2019-04-04T08:25:24.946Z,99.90
2019-04-04T08:27:26.350Z,99.90
2019-04-04T08:29:27.696Z,99.90
2019-04-04T08:31:29.082Z,99.90
2019-04-04T08:33:30.424Z,99.90
2019-04-04T08:35:31.810Z,99.90
2019-04-04T08:37:33.170Z,99.90
2019-04-04T08:39:34.541Z,99.90
2019-04-04T08:41:36.103Z,99.90
2019-04-04T08:43:37.469Z,99.90
2019-04-04T08:45:38.833Z,99.90
2019-04-04T08:47:40.219Z,99.90
2019-04-04T08:49:41.560Z,99.90
2019-04-04T08:51:42.911Z,99.90
2019-04-04T08:53:44.313Z,99.90
2019-04-04T08:55:45.662Z,99.90
2019-04-04T08:57:47.007Z,99.90
2019-04-04T08:59:48.408Z,99.90
2019-04-04T09:01:49.734Z,99.90
2019-04-04T09:03:51.118Z,99.90
2019-04-04T09:05:52.465Z,99.90
2019-04-04T09:07:53.816Z,99.90
2019-04-04T09:09:55.278Z,99.90
2019-04-04T09:11:56.767Z,99.90
2019-04-04T09:13:58.126Z,99.90
2019-04-04T09:15:59.526Z,99.90
2019-04-04T09:18:00.874Z,99.90
2019-04-04T09:20:05.541Z,99.90
2019-04-04T09:22:10.625Z,99.90
2019-04-04T09:24:10.207Z,99.90
2019-04-04T09:26:11.611Z,99.90
2019-04-04T09:28:13.024Z,99.90
2019-04-04T09:30:15.416Z,99.90
2019-04-04T09:32:16.761Z,99.90
2019-04-04T09:34:18.121Z,99.90
2019-04-04T09:36:19.499Z,99.80
2019-04-04T09:38:20.847Z,98.50
2019-04-04T09:40:22.227Z,98.80
2019-04-04T09:42:23.599Z,99.30
2019-04-04T09:44:24.960Z,99.90
2019-04-04T09:46:26.395Z,99.50
2019-04-04T09:48:27.736Z,99.90
2019-04-04T09:50:29.077Z,99.90
2019-04-04T09:52:30.447Z,98.60
2019-04-04T09:54:31.788Z,99.90
2019-04-04T09:56:33.161Z,97.80
2019-04-04T09:58:34.533Z,98.60
2019-04-04T10:00:35.883Z,98.60
2019-04-04T10:02:37.228Z,97.00
2019-04-04T10:04:38.810Z,96.90
2019-04-04T10:06:40.160Z,96.50
2019-04-04T10:08:41.505Z,96.60
2019-04-04T10:10:42.976Z,95.40
2019-04-04T10:12:44.327Z,96.60
2019-04-04T10:14:45.673Z,96.50
2019-04-04T10:16:47.047Z,95.60
2019-04-04T10:18:48.392Z,94.80
2019-04-04T10:20:49.753Z,94.70
2019-04-04T10:22:51.124Z,95.80
2019-04-04T10:24:52.482Z,96.40
2019-04-04T10:26:53.855Z,93.50
2019-04-04T10:28:55.238Z,94.70
2019-04-04T10:30:56.598Z,94.30
2019-04-04T10:32:57.933Z,94.10
2019-04-04T10:34:59.320Z,94.30
2019-04-04T10:37:00.663Z,93.70
2019-04-04T10:39:04.047Z,93.90
2019-04-04T10:41:05.391Z,93.60
2019-04-04T10:43:06.755Z,92.70
2019-04-04T10:45:08.238Z,92.20
2019-04-04T10:47:09.615Z,92.00
2019-04-04T10:49:11.182Z,91.80
2019-04-04T10:51:12.582Z,91.20
2019-04-04T10:53:13.938Z,91.30
2019-04-04T10:55:15.323Z,91.40
2019-04-04T10:57:16.678Z,90.80
2019-04-04T10:59:18.062Z,92.30
2019-04-04T11:01:19.420Z,90.60
2019-04-04T11:03:20.785Z,89.80
2019-04-04T11:05:22.153Z,89.80
2019-04-04T11:07:23.536Z,89.70
2019-04-04T11:09:24.885Z,87.60
2019-04-04T11:11:26.222Z,89.10
2019-04-04T11:13:33.270Z,90.00
2019-04-04T11:15:30.976Z,85.60
2019-04-04T11:17:32.334Z,86.70
2019-04-04T11:19:33.704Z,87.70
2019-04-04T11:21:35.083Z,86.40
2019-04-04T11:23:36.427Z,85.60
2019-04-04T11:25:37.803Z,84.20
2019-04-04T11:27:39.191Z,83.50
2019-04-04T11:29:40.566Z,83.40
2019-04-04T11:31:41.913Z,84.60
2019-04-04T11:33:43.296Z,85.30
2019-04-04T11:35:44.666Z,86.30
2019-04-04T11:37:46.014Z,84.00
2019-04-04T11:39:54.449Z,82.10
2019-04-04T11:41:50.643Z,79.50
2019-04-04T11:43:51.991Z,79.50
2019-04-04T11:45:53.392Z,79.80
2019-04-04T11:47:54.783Z,81.40
2019-04-04T11:49:56.131Z,84.80
2019-04-04T11:51:57.503Z,82.00
2019-04-04T11:53:58.871Z,79.00
2019-04-04T11:56:00.225Z,81.60
2019-04-04T11:58:01.729Z,82.00
2019-04-04T12:00:06.482Z,78.90
2019-04-04T12:02:07.830Z,78.70
2019-04-04T12:04:09.239Z,78.30
2019-04-04T12:06:10.613Z,77.80
2019-04-04T12:08:11.958Z,78.30
2019-04-04T12:10:15.334Z,78.40
2019-04-04T12:12:16.724Z,73.80
2019-04-04T12:14:18.085Z,76.10
2019-04-04T12:16:19.441Z,74.60
2019-04-04T12:18:20.834Z,75.20
2019-04-04T12:20:22.198Z,72.70
2019-04-04T12:22:23.580Z,73.20
2019-04-04T12:24:24.924Z,72.70
2019-04-04T12:26:26.279Z,72.80
2019-04-04T12:28:27.654Z,68.80
2019-04-04T12:30:28.997Z,72.90
2019-04-04T12:32:30.374Z,69.20
2019-04-04T12:34:31.751Z,70.00
2019-04-04T12:36:33.127Z,70.40
2019-04-04T12:38:34.495Z,67.80
2019-04-04T12:40:35.891Z,68.90
2019-04-04T12:42:37.233Z,67.20
2019-04-04T12:44:38.622Z,68.60
2019-04-04T12:46:42.375Z,68.50
2019-04-04T12:48:43.246Z,63.70
2019-04-04T12:50:44.620Z,68.90
2019-04-04T12:52:45.994Z,66.20
2019-04-04T12:54:47.339Z,68.20
2019-04-04T12:56:48.716Z,66.80
2019-04-04T12:58:50.206Z,66.20
2019-04-04T13:00:51.581Z,63.20
2019-04-04T13:02:52.955Z,68.90
2019-04-04T13:04:54.304Z,65.20
2019-04-04T13:06:55.685Z,66.80
2019-04-04T13:08:57.058Z,64.80
2019-04-04T13:10:58.533Z,60.40
2019-04-04T13:12:59.901Z,62.10
2019-04-04T13:15:01.385Z,62.80
2019-04-04T13:17:02.724Z,63.10
2019-04-04T13:19:04.099Z,63.30
2019-04-04T13:21:05.452Z,64.00
2019-04-04T13:23:06.801Z,65.40
2019-04-04T13:25:08.876Z,66.10
2019-04-04T13:27:10.228Z,61.70
2019-04-04T13:29:11.592Z,61.90
2019-04-04T13:31:13.045Z,60.60
2019-04-04T13:33:14.395Z,62.50
2019-04-04T13:35:15.789Z,61.10
2019-04-04T13:37:17.163Z,62.10
2019-04-04T13:39:18.552Z,63.70
2019-04-04T13:41:22.267Z,57.30
2019-04-04T13:43:23.279Z,61.80
2019-04-04T13:45:25.391Z,59.50
2019-04-04T13:47:27.468Z,60.00
2019-04-04T13:49:28.811Z,59.30
2019-04-04T13:51:30.165Z,58.70
2019-04-04T13:53:31.561Z,57.40
2019-04-04T13:55:32.906Z,58.50
2019-04-04T13:57:34.251Z,57.40
2019-04-04T13:59:35.639Z,55.60
2019-04-04T14:01:36.987Z,56.80
2019-04-04T14:03:38.381Z,54.90
2019-04-04T14:05:39.729Z,55.40
2019-04-04T14:07:43.638Z,57.10
2019-04-04T14:09:45.280Z,56.90
2019-04-04T14:11:46.725Z,55.30
2019-04-04T14:13:49.524Z,54.70
2019-04-04T14:15:51.058Z,53.80
2019-04-04T14:17:52.447Z,52.50
2019-04-04T14:19:53.813Z,52.50
2019-04-04T14:21:55.200Z,52.40
2019-04-04T14:23:56.972Z,51.60
2019-04-04T14:25:59.895Z,51.00
2019-04-04T14:28:01.790Z,51.90
2019-04-04T14:30:07.559Z,51.50
2019-04-04T14:32:08.941Z,52.30
2019-04-04T14:34:11.676Z,51.00
2019-04-04T14:36:13.575Z,49.00
2019-04-04T14:38:14.961Z,52.00
2019-04-04T14:40:16.327Z,50.80
2019-04-04T14:42:17.665Z,51.90
2019-04-04T14:44:19.241Z,50.50
2019-04-04T14:46:20.593Z,51.30
2019-04-04T14:48:21.939Z,51.20
2019-04-04T14:50:23.313Z,50.70
2019-04-04T14:52:24.657Z,50.80
2019-04-04T14:54:28.925Z,51.30
2019-04-04T14:56:29.477Z,50.00
2019-04-04T14:58:31.052Z,51.10
2019-04-04T15:00:32.699Z,50.40
2019-04-04T15:02:34.079Z,51.10
2019-04-04T15:04:35.430Z,51.20
2019-04-04T15:06:36.772Z,50.50
2019-04-04T15:08:38.149Z,50.40
2019-04-04T15:10:39.507Z,51.40
2019-04-04T15:12:40.867Z,50.90
2019-04-04T15:14:42.257Z,50.90
2019-04-04T15:16:43.617Z,49.70
2019-04-04T15:18:45.674Z,52.30
2019-04-04T15:20:47.074Z,50.40
2019-04-04T15:22:48.418Z,49.40
2019-04-04T15:24:49.763Z,48.50
2019-04-04T15:26:51.138Z,49.70
2019-04-04T15:28:52.491Z,48.30
2019-04-04T15:30:53.872Z,49.40
2019-04-04T15:32:55.245Z,48.10
2019-04-04T15:34:56.605Z,49.20
2019-04-04T15:36:57.989Z,48.30
2019-04-04T15:38:59.353Z,48.00
2019-04-04T15:41:00.833Z,48.60
2019-04-04T15:43:02.259Z,48.60
2019-04-04T15:45:05.116Z,48.10
2019-04-04T15:47:06.460Z,50.00
2019-04-04T15:49:07.852Z,49.10
2019-04-04T15:51:09.217Z,49.60
2019-04-04T15:53:10.574Z,48.90
2019-04-04T15:55:12.242Z,48.80
2019-04-04T15:57:13.614Z,48.10
2019-04-04T15:59:14.954Z,47.20
2019-04-04T16:01:16.332Z,48.10
2019-04-04T16:03:17.682Z,49.00
2019-04-04T16:05:19.174Z,46.90
2019-04-04T16:07:20.529Z,47.40
2019-04-04T16:09:21.875Z,47.40
2019-04-04T16:11:23.271Z,47.80
2019-04-04T16:13:24.629Z,47.30
2019-04-04T16:15:26.201Z,47.90
2019-04-04T16:17:27.562Z,48.10
2019-04-04T16:19:28.914Z,48.80
2019-04-04T16:21:30.291Z,48.20
2019-04-04T16:23:31.636Z,49.00
2019-04-04T16:25:32.979Z,49.30
2019-04-04T16:27:34.414Z,50.00
2019-04-04T16:29:35.779Z,50.30
2019-04-04T16:31:37.148Z,50.40
2019-04-04T16:33:38.551Z,49.00
2019-04-04T16:35:39.892Z,49.80
2019-04-04T16:37:41.277Z,48.40
2019-04-04T16:39:42.626Z,49.10
2019-04-04T16:41:44.025Z,49.40
2019-04-04T16:43:45.381Z,48.50
2019-04-04T16:45:46.726Z,49.30
2019-04-04T16:47:48.124Z,48.40
2019-04-04T16:49:49.467Z,48.80
2019-04-04T16:51:50.811Z,49.00
2019-04-04T16:53:52.199Z,49.30
2019-04-04T16:55:53.558Z,49.40
2019-04-04T16:57:54.925Z,48.50
2019-04-04T16:59:56.307Z,49.00
2019-04-04T17:01:57.651Z,49.60
2019-04-04T17:04:01.789Z,49.60
2019-04-04T17:06:02.581Z,50.10
2019-04-04T17:08:04.028Z,50.50
2019-04-04T17:10:07.874Z,50.00
2019-04-04T17:12:14.833Z,50.60
2019-04-04T17:14:12.612Z,50.80
2019-04-04T17:16:13.973Z,50.70
2019-04-04T17:18:15.365Z,50.90
2019-04-04T17:20:16.809Z,50.80
2019-04-04T17:22:18.188Z,51.10
2019-04-04T17:24:19.541Z,51.70
2019-04-04T17:26:20.887Z,52.00
2019-04-04T17:28:22.545Z,52.10
2019-04-04T17:30:24.234Z,52.10
2019-04-04T17:32:25.972Z,52.60
2019-04-04T17:34:27.493Z,52.40
2019-04-04T17:36:28.855Z,52.60
2019-04-04T17:38:30.522Z,53.30
2019-04-04T17:40:32.238Z,53.30
2019-04-04T17:42:34.464Z,53.60
2019-04-04T17:44:35.899Z,53.80
2019-04-04T17:46:37.277Z,54.50
2019-04-04T17:48:39.025Z,55.20
2019-04-04T17:50:40.482Z,55.10
2019-04-04T17:52:42.367Z,55.10
2019-04-04T17:54:44.004Z,55.70
2019-04-04T17:56:45.520Z,55.30
2019-04-04T17:58:47.133Z,56.20
2019-04-04T18:00:48.541Z,56.60
2019-04-04T18:02:49.872Z,56.50
2019-04-04T18:04:51.256Z,56.30
2019-04-04T18:06:52.607Z,56.00
2019-04-04T18:08:53.959Z,56.00
2019-04-04T18:10:55.341Z,56.90
2019-04-04T18:12:56.710Z,56.60
2019-04-04T18:14:58.054Z,57.00
2019-04-04T18:16:59.446Z,56.90
2019-04-04T18:19:00.816Z,57.30
2019-04-04T18:21:02.196Z,57.40
2019-04-04T18:23:03.581Z,57.40
2019-04-04T18:25:05.438Z,57.00
2019-04-04T18:27:06.793Z,57.70
2019-04-04T18:29:08.175Z,58.00
2019-04-04T18:31:09.528Z,58.40
2019-04-04T18:33:10.875Z,57.80
2019-04-04T18:35:12.893Z,58.00
2019-04-04T18:37:14.325Z,57.90
2019-04-04T18:39:15.677Z,58.50
2019-04-04T18:41:17.073Z,58.40
2019-04-04T18:43:18.418Z,58.40
2019-04-04T18:45:19.771Z,59.20
2019-04-04T18:47:21.156Z,59.60
2019-04-04T18:49:22.524Z,59.70
2019-04-04T18:51:23.937Z,59.60
2019-04-04T18:53:25.299Z,60.00
2019-04-04T18:55:26.649Z,60.10
2019-04-04T18:57:28.036Z,60.50
2019-04-04T18:59:29.492Z,61.50
2019-04-04T19:01:30.871Z,61.70
2019-04-04T19:03:32.215Z,61.50
2019-04-04T19:05:33.632Z,61.50
2019-04-04T19:07:39.470Z,61.70
2019-04-04T19:09:38.418Z,61.90
2019-04-04T19:11:40.101Z,62.00
2019-04-04T19:13:44.476Z,62.30
2019-04-04T19:15:44.833Z,62.80
2019-04-04T19:17:46.206Z,63.10
2019-04-04T19:19:47.553Z,62.80
2019-04-04T19:21:48.927Z,62.60
2019-04-04T19:23:50.291Z,63.30
2019-04-04T19:25:51.661Z,63.30
2019-04-04T19:27:53.016Z,63.20
2019-04-04T19:29:54.410Z,63.50
2019-04-04T19:31:55.770Z,63.40
2019-04-04T19:33:57.347Z,64.00
2019-04-04T19:35:58.755Z,64.00
2019-04-04T19:38:00.684Z,64.00
2019-04-04T19:40:04.593Z,64.00
2019-04-04T19:42:05.960Z,64.90
2019-04-04T19:44:07.522Z,64.60
2019-04-04T19:46:08.887Z,64.80
2019-04-04T19:48:10.263Z,64.80
2019-04-04T19:50:12.119Z,64.60
2019-04-04T19:52:13.498Z,65.20
2019-04-04T19:54:14.877Z,65.30
2019-04-04T19:56:16.242Z,65.50
2019-04-04T19:58:17.630Z,65.60
2019-04-04T20:00:19.322Z,65.70
2019-04-04T20:02:20.838Z,65.80
2019-04-04T20:04:22.241Z,66.00
2019-04-04T20:06:23.593Z,66.00
2019-04-04T20:08:24.942Z,66.50
2019-04-04T20:10:26.315Z,66.50
2019-04-04T20:12:27.697Z,67.20
2019-04-04T20:14:29.235Z,67.50
2019-04-04T20:16:30.594Z,67.40
2019-04-04T20:18:31.974Z,67.90
2019-04-04T20:20:33.328Z,68.50
2019-04-04T20:22:34.662Z,68.20
2019-04-04T20:24:36.053Z,68.50
2019-04-04T20:26:37.428Z,68.20
2019-04-04T20:28:40.131Z,68.60
2019-04-04T20:30:41.852Z,68.40
2019-04-04T20:32:43.199Z,69.10
2019-04-04T20:34:44.552Z,69.30
2019-04-04T20:36:45.933Z,69.50
2019-04-04T20:38:47.293Z,69.30
2019-04-04T20:40:48.637Z,70.60
2019-04-04T20:42:50.040Z,70.70
2019-04-04T20:44:51.393Z,70.40
2019-04-04T20:46:52.763Z,71.00
2019-04-04T20:48:54.108Z,71.00
2019-04-04T20:50:55.593Z,71.20
2019-04-04T20:52:56.957Z,71.20
2019-04-04T20:54:58.432Z,71.40
2019-04-04T20:56:59.798Z,71.70
2019-04-04T20:59:01.169Z,71.50
2019-04-04T21:01:02.631Z,72.20
2019-04-04T21:03:03.974Z,72.20
2019-04-04T21:05:06.160Z,72.40
2019-04-04T21:07:07.527Z,72.70
2019-04-04T21:09:08.901Z,73.20
2019-04-04T21:11:10.358Z,73.20
2019-04-04T21:13:11.716Z,73.70
2019-04-04T21:15:13.734Z,74.00
2019-04-04T21:17:15.095Z,74.60
2019-04-04T21:19:16.467Z,74.20
2019-04-04T21:21:17.818Z,74.80
2019-04-04T21:23:21.315Z,74.90
2019-04-04T21:25:22.700Z,74.80
2019-04-04T21:27:24.057Z,75.60
2019-04-04T21:29:25.472Z,75.70
2019-04-04T21:31:26.800Z,76.10
2019-04-04T21:33:28.225Z,76.60
2019-04-04T21:35:29.569Z,76.50
2019-04-04T21:37:30.962Z,76.60
2019-04-04T21:39:32.337Z,76.80
2019-04-04T21:41:33.682Z,76.70
2019-04-04T21:43:37.021Z,77.00
2019-04-04T21:45:38.383Z,77.20
2019-04-04T21:47:39.923Z,77.60
2019-04-04T21:49:41.293Z,77.40
2019-04-04T21:51:42.635Z,77.60
2019-04-04T21:53:44.011Z,78.30
2019-04-04T21:55:45.379Z,77.90
2019-04-04T21:57:46.730Z,78.40
2019-04-04T21:59:48.105Z,78.20
2019-04-04T22:01:49.672Z,79.20
2019-04-04T22:03:51.291Z,79.20
2019-04-04T22:05:52.679Z,78.90
2019-04-04T22:07:54.017Z,80.00
2019-04-04T22:09:55.419Z,79.80
2019-04-04T22:11:56.986Z,79.70
2019-04-04T22:13:58.328Z,79.90
2019-04-04T22:15:59.670Z,79.80
2019-04-04T22:18:01.041Z,80.40
2019-04-04T22:20:05.209Z,80.60
2019-04-04T22:22:06.592Z,80.50
2019-04-04T22:24:07.951Z,80.60
2019-04-04T22:26:09.339Z,81.30
2019-04-04T22:28:10.694Z,81.00
2019-04-04T22:30:12.440Z,81.90
2019-04-04T22:32:13.816Z,82.00
2019-04-04T22:34:15.262Z,82.20
2019-04-04T22:36:16.646Z,81.80
2019-04-04T22:38:18.007Z,82.50
2019-04-04T22:40:19.363Z,82.60
2019-04-04T22:42:21.114Z,82.50
2019-04-04T22:44:34.021Z,83.20
2019-04-04T22:46:25.739Z,83.90
2019-04-04T22:48:27.129Z,83.40
2019-04-04T22:50:28.477Z,83.30
2019-04-04T22:52:29.821Z,83.60
2019-04-04T22:54:31.199Z,84.40
2019-04-04T22:56:32.564Z,84.20
2019-04-04T22:58:33.943Z,84.80
2019-04-04T23:00:35.390Z,84.60
2019-04-04T23:02:36.737Z,85.60
2019-04-04T23:04:38.126Z,86.10
2019-04-04T23:06:39.506Z,86.40
2019-04-04T23:08:40.887Z,86.70
2019-04-04T23:10:42.353Z,86.50
2019-04-04T23:12:43.693Z,87.00
2019-04-04T23:14:48.313Z,86.40
2019-04-04T23:16:48.348Z,87.60
2019-04-04T23:18:49.721Z,87.80
2019-04-04T23:20:51.323Z,88.50
2019-04-04T23:22:53.304Z,89.00
2019-04-04T23:24:54.931Z,89.10
2019-04-04T23:26:56.300Z,89.80
2019-04-04T23:28:57.692Z,90.10
2019-04-04T23:30:59.037Z,90.00
2019-04-04T23:33:00.438Z,90.00
2019-04-04T23:35:02.590Z,89.80
2019-04-04T23:37:03.937Z,90.50
2019-04-04T23:39:05.808Z,91.00
2019-04-04T23:41:07.175Z,91.30
2019-04-04T23:43:08.559Z,91.30
2019-04-04T23:45:10.184Z,91.70
2019-04-04T23:47:11.559Z,91.40
2019-04-04T23:49:12.940Z,92.20
2019-04-04T23:51:14.511Z,92.00
2019-04-04T23:53:15.854Z,92.30
2019-04-04T23:55:17.323Z,92.70
2019-04-04T23:57:18.695Z,92.80
2019-04-04T23:59:20.054Z,92.80
